Time;durP1;ratioP1;P1;durP2;ratioP2;P2;SDS_P1;SDS_P2;PMS_P1;PMS_P2;Temp;Humidity;BMP_temperature;BMP_pressure;BME280_temperature;BME280_humidity;BME280_pressure;Samples;Min_cycle;Max_cycle;Signal;HPM_P1;HPM_P2
2022/06/21 14:49:48;;;;;;;14.68;9.90;;;48.20;27.80;;;40.07;20.79;94952.41;5025352;28;20222;-51
2022/06/21 14:53:10;;;;;;;16.20;11.13;;;48.30;23.60;;;40.10;20.65;94953.50;4984598;28;20038;-48
2022/06/21 14:56:10;;;;;;;15.10;10.30;;;49.10;21.90;;;40.41;20.17;94948.38;4988622;28;20105;-51
2022/06/21 14:59:35;;;;;;;12.30;11.23;;;50.20;21.00;;;40.79;19.96;94943.31;4987718;28;20091;-49
2022/06/21 15:02:29;;;;;;;13.48;12.07;;;51.00;20.00;;;41.51;18.99;94941.06;4987421;28;20038;-49
2022/06/21 15:05:26;;;;;;;13.00;11.88;;;51.60;19.50;;;41.41;18.82;94922.09;4985267;28;20029;-51
2022/06/21 15:08:13;;;;;;;15.52;11.52;;;52.20;18.80;;;41.32;18.09;94928.53;4983618;28;20092;-49
2022/06/21 15:11:10;;;;;;;13.55;12.10;;;52.80;17.90;;;41.35;17.54;94924.78;5002834;28;20026;-50
2022/06/21 15:14:01;;;;;;;13.43;11.98;;;53.30;17.20;;;41.77;17.30;94916.06;5001639;28;20103;-50
2022/06/21 15:17:02;;;;;;;11.30;10.27;;;53.50;16.80;;;41.74;17.60;94902.28;4987049;28;20034;-48
2022/06/21 15:20:15;;;;;;;11.98;10.35;;;53.50;16.50;;;41.37;18.15;94891.56;4986812;28;20436;-49
2022/06/21 15:23:37;;;;;;;14.77;9.95;;;53.30;16.70;;;41.25;18.17;94887.03;4998610;28;20026;-52
2022/06/21 15:26:52;;;;;;;10.43;8.90;;;52.80;16.40;;;41.13;18.30;94888.88;4987746;28;20017;-49
2022/06/21 15:29:40;;;;;;;12.57;8.32;;;52.30;16.50;;;40.93;20.32;94884.72;5012356;28;20133;-48
2022/06/21 15:32:20;;;;;;;12.48;8.23;;;51.60;16.80;;;40.79;19.91;94871.50;4993151;28;20037;-53
2022/06/21 15:34:54;;;;;;;13.65;9.15;;;51.30;17.20;;;40.80;20.22;94872.25;4987927;28;20030;-53
2022/06/21 15:37:57;;;;;;;12.88;8.80;;;51.60;17.20;;;40.26;19.03;94872.22;4987476;28;20030;-50
2022/06/21 15:40:46;;;;;;;10.18;9.13;;;51.80;16.70;;;40.14;21.55;94864.84;4920587;28;21847;-51
2022/06/21 15:43:37;;;;;;;11.32;8.57;;;51.20;17.10;;;40.14;20.78;94867.66;4986980;28;20041;-54
2022/06/21 15:46:35;;;;;;;11.50;10.40;;;51.20;17.00;;;40.47;20.07;94865.56;5002986;28;20028;-53
2022/06/21 15:52:55;;;;;;;13.63;10.10;;;52.90;16.30;;;40.56;19.46;94861.91;4997986;28;20025;-53
2022/06/21 15:55:37;;;;;;;15.05;9.40;;;53.20;16.10;;;40.56;20.12;94852.78;4983557;28;20047;-49
2022/06/21 15:58:37;;;;;;;9.50;8.57;;;52.70;16.10;;;40.62;19.17;94854.47;4988409;28;20026;-49
2022/06/21 16:01:49;;;;;;;13.85;7.85;;;52.00;16.10;;;40.39;20.96;94855.25;4984711;28;20404;-48
2022/06/21 16:04:52;;;;;;;10.30;7.20;;;51.20;16.40;;;39.77;20.19;94849.16;4962999;28;20069;-50
2022/06/21 16:07:30;;;;;;;12.90;7.03;;;50.20;17.00;;;39.19;20.12;94858.66;4965227;28;20096;-50
2022/06/21 16:09:59;;;;;;;12.02;7.15;;;49.10;17.10;;;38.90;20.62;94852.88;4956100;28;20030;-49
2022/06/21 16:12:46;;;;;;;21.35;12.80;;;48.10;17.40;;;38.54;21.52;94852.41;4972517;28;20092;-48
2022/06/21 16:15:54;;;;;;;14.57;8.63;;;47.20;17.90;;;38.08;21.56;94854.38;4983472;28;20026;-47
2022/06/21 16:18:36;;;;;;;9.40;5.93;;;46.10;18.50;;;37.57;26.39;94857.66;4967007;28;20042;-50
2022/06/21 16:21:36;;;;;;;11.70;5.53;;;45.30;19.60;;;37.11;26.44;94860.25;4973813;28;20110;-48
2022/06/21 16:24:38;;;;;;;8.27;6.00;;;44.30;20.50;;;36.68;27.57;94864.59;4971657;28;20092;-51
2022/06/21 16:27:19;;;;;;;12.75;5.65;;;43.40;21.20;;;36.26;28.17;94862.88;4970756;28;20022;-49
2022/06/21 16:30:01;;;;;;;10.48;5.28;;;42.80;22.00;;;35.95;27.48;94854.41;4969778;28;20042;-50
2022/06/21 16:36:03;;;;;;;12.52;5.80;;;41.50;22.90;;;35.08;29.31;94855.56;4970794;28;20068;-48
2022/06/21 16:38:58;;;;;;;10.90;5.85;;;40.90;23.50;;;34.60;29.44;94862.06;4971794;28;20038;-48
2022/06/21 16:44:24;;;;;;;9.48;4.82;;;39.80;24.70;;;33.76;31.43;94857.13;4971189;28;20566;-48
2022/06/21 16:47:07;;;;;;;11.43;6.07;;;39.30;25.00;;;33.32;31.29;94853.03;4988390;28;20025;-56
2022/06/21 16:50:14;;;;;;;11.95;5.05;;;38.80;25.40;;;32.90;32.55;94853.50;4972012;28;20737;-53
2022/06/21 16:52:40;;;;;;;8.15;4.93;;;38.30;25.80;;;32.52;33.71;94847.63;4982515;28;20022;-54
2022/06/21 16:55:20;;;;;;;12.05;5.75;;;37.90;26.20;;;32.05;34.38;94844.94;4973069;28;20417;-53
2022/06/21 16:58:05;;;;;;;13.25;6.07;;;37.50;26.80;;;31.79;34.59;94846.56;4971091;28;20543;-53
2022/06/21 17:00:39;;;;;;;11.02;5.38;;;37.10;27.10;;;31.69;35.43;94840.06;4988124;28;20497;-52
2022/06/21 17:03:15;;;;;;;11.15;5.45;;;36.80;27.40;;;31.56;35.85;94834.38;4972214;28;20448;-53
2022/06/21 17:05:54;;;;;;;9.27;4.55;;;36.40;27.90;;;31.29;37.00;94850.88;4971024;28;20053;-54
2022/06/21 17:08:28;;;;;;;10.13;5.55;;;36.20;28.50;;;31.16;36.60;94844.41;4969558;28;20038;-49
2022/06/21 17:13:46;;;;;;;14.52;5.63;;;35.60;29.00;;;30.74;38.90;94851.22;4973118;28;20041;-52
2022/06/21 17:16:37;;;;;;;11.18;5.47;;;35.30;29.60;;;30.54;34.89;94848.34;4985414;28;20019;-51
2022/06/21 17:19:38;;;;;;;12.35;5.55;;;35.00;29.30;;;30.40;38.56;94855.56;4976495;28;20030;-52
2022/06/21 17:22:37;;;;;;;11.00;5.43;;;34.70;29.70;;;30.30;36.76;94852.94;4968127;28;20481;-49
2022/06/21 17:25:11;;;;;;;8.50;5.82;;;34.40;29.80;;;30.21;39.69;94861.69;4972751;28;20109;-50
2022/06/21 17:28:13;;;;;;;9.57;4.88;;;34.30;30.50;;;30.05;40.53;94858.66;4951947;28;20041;-49
2022/06/21 17:31:07;;;;;;;11.00;6.22;;;34.10;31.40;;;29.87;41.79;94854.13;4977308;28;20037;-49
2022/06/21 17:34:06;;;;;;;10.93;5.68;;;33.80;32.10;;;29.64;42.29;94860.19;4936253;28;27718;-52
2022/06/21 17:36:57;;;;;;;14.95;6.18;;;33.60;32.60;;;29.49;42.12;94848.56;5003935;28;20048;-50
2022/06/21 17:40:09;;;;;;;11.65;7.25;;;33.30;33.10;;;29.33;42.94;94850.25;4971969;28;20041;-49
2022/06/21 17:43:06;;;;;;;9.10;5.80;;;33.10;33.70;;;29.22;43.54;94853.06;4972526;28;20033;-52
2022/06/21 17:45:47;;;;;;;11.95;5.55;;;32.90;34.00;;;29.14;43.45;94863.28;4964990;28;20110;-50
2022/06/21 17:48:34;;;;;;;17.17;5.40;;;32.70;34.50;;;29.02;44.53;94858.31;4970918;28;20037;-51
2022/06/21 17:51:11;;;;;;;11.52;5.15;;;32.60;35.20;;;28.86;45.07;94842.28;4971169;28;20118;-48
2022/06/21 17:53:58;;;;;;;9.38;5.03;;;32.30;35.50;;;28.68;45.13;94849.84;4971105;28;20029;-51
2022/06/21 17:56:40;;;;;;;14.27;5.35;;;32.20;36.10;;;28.54;45.19;94858.88;4971001;28;20033;-48
2022/06/21 17:59:27;;;;;;;10.73;5.07;;;32.00;36.40;;;28.33;45.79;94857.78;4972067;28;20026;-50
2022/06/21 18:02:41;;;;;;;10.25;4.90;;;31.80;36.70;;;28.08;45.84;94857.03;4990367;28;20021;-49
2022/06/21 18:05:29;;;;;;;;;;;31.60;36.90;;;27.96;45.46;94846.53;4990589;28;20536;-48
2022/06/21 18:08:23;;;;;;;10.40;5.45;;;31.40;36.10;;;27.86;45.98;94867.25;5022239;28;19916;-53
2022/06/21 18:11:16;;;;;;;10.73;4.53;;;31.30;36.90;;;27.65;46.47;94868.81;4989772;28;20033;-51
2022/06/21 18:14:08;;;;;;;13.38;5.18;;;31.10;37.20;;;27.52;46.77;94856.72;4984413;28;20039;-50
2022/06/21 18:16:54;;;;;;;12.23;5.38;;;31.00;37.40;;;27.38;47.68;94854.75;4966214;28;20033;-51
2022/06/21 18:20:06;;;;;;;10.60;5.10;;;31.00;37.70;;;27.28;50.26;94839.13;4971755;28;20080;-52
2022/06/21 18:23:14;;;;;;;11.05;5.32;;;30.90;38.30;;;27.13;49.44;94837.50;4970414;28;20026;-52
2022/06/21 18:26:11;;;;;;;10.20;5.60;;;30.80;38.80;;;26.97;49.02;94829.69;4971567;28;20037;-52
2022/06/21 18:29:32;;;;;;;9.75;4.75;;;30.70;39.10;;;26.86;48.28;94848.03;4971609;28;20536;-49
2022/06/21 18:32:34;;;;;;;13.38;5.43;;;30.60;39.10;;;26.85;48.31;94860.09;4940556;28;20034;-47
2022/06/21 18:35:02;;;;;;;17.77;5.50;;;30.50;39.20;;;26.83;47.77;94871.44;4970165;28;20080;-48
2022/06/21 18:37:48;;;;;;;14.18;4.78;;;30.40;39.00;;;26.79;47.33;94888.97;4970503;28;20117;-51
2022/06/21 18:40:59;;;;;;;12.23;5.55;;;30.30;39.30;;;26.73;48.78;94888.53;4971540;28;20473;-47
2022/06/21 18:44:01;;;;;;;9.57;5.57;;;30.30;39.60;;;26.60;50.63;94893.56;4971290;28;20427;-51
2022/06/21 18:46:58;;;;;;;16.95;5.43;;;30.20;40.10;;;26.47;52.11;94892.31;4974623;28;20357;-48
2022/06/21 18:49:35;;;;;;;15.07;5.80;;;30.00;40.60;;;26.28;52.26;94907.81;4990759;28;20054;-51
2022/06/21 18:52:52;;;;;;;16.30;5.80;;;29.90;41.20;;;26.18;51.93;94913.22;4989969;28;20037;-51
2022/06/21 18:56:07;;;;;;;12.48;5.22;;;29.70;41.40;;;26.03;50.86;94923.28;4991022;28;20108;-52
2022/06/21 18:58:46;;;;;;;16.33;5.85;;;29.50;41.60;;;25.96;52.13;94926.72;4964470;28;34730;-51
2022/06/21 19:02:09;;;;;;;14.38;5.00;;;29.40;41.80;;;25.90;52.28;94927.47;4989464;28;20025;-53
2022/06/21 19:08:51;;;;;;;12.70;5.18;;;29.20;42.20;;;25.64;54.08;94899.19;4990740;28;20491;-51
2022/06/21 19:11:52;;;;;;;9.40;5.28;;;29.10;42.50;;;25.46;54.23;94895.53;4975682;28;20396;-48
2022/06/21 19:14:38;;;;;;;9.90;5.32;;;28.90;43.00;;;25.32;52.24;94888.81;4971690;28;20030;-49
2022/06/21 19:17:49;;;;;;;9.30;4.85;;;28.80;42.90;;;25.28;51.71;94893.41;4969067;28;20072;-48
2022/06/21 19:21:01;;;;;;;11.15;5.32;;;28.70;43.00;;;25.12;53.06;94873.78;4971306;28;20104;-50
2022/06/21 19:24:42;;;;;;;16.77;5.05;;;28.60;43.10;;;24.92;53.68;94865.81;4970898;28;20102;-50
2022/06/21 19:27:44;;;;;;;18.20;5.50;;;28.50;43.20;;;24.98;54.02;94868.22;4964659;28;20591;-48
2022/06/21 19:31:00;;;;;;;14.70;5.28;;;28.40;43.60;;;24.92;54.80;94906.66;4985225;28;20583;-55
2022/06/21 19:34:29;;;;;;;22.33;5.97;;;28.30;43.90;;;24.83;54.66;94932.63;4971024;28;20069;-53
2022/06/21 19:38:10;;;;;;;10.30;5.05;;;28.30;44.00;;;24.77;53.36;94961.34;5000584;28;20033;-48
2022/06/21 19:41:10;;;;;;;13.85;4.88;;;28.20;43.80;;;24.84;53.32;94972.31;4974636;28;20026;-52
2022/06/21 19:43:54;;;;;;;14.38;4.78;;;28.20;44.10;;;24.84;53.13;94977.78;4971381;28;20030;-52
2022/06/21 19:46:58;;;;;;;12.52;4.70;;;28.10;44.00;;;24.75;53.59;94982.72;5004507;28;20105;-51
2022/06/21 19:49:32;;;;;;;12.43;4.40;;;28.10;44.10;;;24.65;53.22;94990.38;4957319;28;20046;-53
2022/06/21 19:52:20;;;;;;;16.98;4.43;;;28.00;44.00;;;24.52;53.27;95001.88;4973600;28;20022;-50
2022/06/21 19:55:11;;;;;;;14.20;4.78;;;27.90;44.10;;;24.42;53.92;95000.56;4973055;28;20034;-51
2022/06/21 19:57:50;;;;;;;11.15;4.95;;;27.80;44.10;;;24.27;54.05;95015.06;4974772;28;20505;-48
2022/06/21 20:00:23;;;;;;;13.57;4.78;;;27.80;44.20;;;23.84;55.59;95017.88;4973152;28;20037;-47
2022/06/21 20:03:01;;;;;;;;;;;27.60;44.20;;;23.44;56.42;95012.88;4974995;28;20022;-49
2022/06/21 20:06:02;;;;;;;16.70;4.10;;;27.50;43.80;;;23.38;56.31;95027.91;4972773;28;19909;-50
2022/06/21 20:08:35;;;;;;;12.02;4.53;;;27.30;44.20;;;23.42;56.14;95023.34;4973945;28;20046;-47
2022/06/21 20:11:22;;;;;;;11.30;4.43;;;27.10;44.60;;;23.39;57.34;95021.34;4972891;28;20026;-52
2022/06/21 20:14:31;;;;;;;10.32;4.50;;;27.00;45.10;;;23.32;57.47;95039.09;4974157;28;20381;-51
2022/06/21 20:17:50;;;;;;;10.45;4.13;;;26.90;45.40;;;23.06;59.02;95017.22;4985120;28;20034;-48
2022/06/21 20:20:57;;;;;;;14.38;4.70;;;26.70;45.50;;;22.87;58.93;95023.41;4980683;28;20123;-51
2022/06/21 20:24:02;;;;;;;13.82;4.43;;;26.60;46.00;;;22.77;58.62;95034.81;4973396;28;20382;-47
2022/06/21 20:26:51;;;;;;;10.82;4.47;;;26.40;46.20;;;22.65;59.58;95005.88;4999862;28;20080;-47
2022/06/21 20:29:24;;;;;;;8.55;4.57;;;26.30;47.00;;;22.55;59.68;95020.00;4971906;28;20564;-51
2022/06/21 20:32:18;;;;;;;15.00;4.05;;;26.10;46.80;;;22.46;59.79;95041.13;4969552;28;20037;-49
2022/06/21 20:35:27;;;;;;;14.98;4.43;;;26.00;47.10;;;22.37;60.90;95039.38;4968719;28;20029;-48
2022/06/21 20:38:39;;;;;;;12.57;4.22;;;25.90;48.00;;;22.28;60.67;95067.84;5002022;28;20398;-48
2022/06/21 20:41:35;;;;;;;8.65;4.13;;;25.80;47.60;;;21.71;64.75;95059.06;4954222;28;20382;-49
2022/06/21 20:44:21;;;;;;;10.80;4.60;;;25.60;48.10;;;21.39;66.03;95063.63;4954924;28;20084;-46
2022/06/21 20:47:02;;;;;;;15.82;5.22;;;25.40;48.60;;;21.30;66.19;95068.38;4965780;28;20215;-50
2022/06/21 20:49:34;;;;;;;10.48;4.55;;;25.20;49.00;;;21.24;66.12;95079.44;4955753;28;20038;-53
2022/06/21 20:52:00;;;;;;;9.35;4.35;;;25.00;49.30;;;21.01;67.54;95081.91;4971266;28;20018;-47
2022/06/21 20:54:55;;;;;;;11.55;4.50;;;24.80;49.60;;;20.35;70.11;95082.22;4971280;28;20080;-46
2022/06/21 20:58:02;;;;;;;7.90;3.83;;;24.60;50.60;;;20.03;70.71;95089.31;4968622;28;20018;-51
2022/06/21 21:00:35;;;;;;;5.25;3.88;;;24.40;50.90;;;19.90;70.49;95076.88;4971712;28;20022;-49
2022/06/21 21:03:12;;;;;;;;;;;24.20;51.10;;;19.87;69.37;95095.38;4971039;28;20050;-47
2022/06/21 21:05:43;;;;;;;7.80;3.63;;;23.90;50.30;;;19.95;68.22;95088.28;4971796;28;19905;-46
2022/06/21 21:08:33;;;;;;;10.32;3.80;;;23.80;51.10;;;19.99;68.71;95083.75;4970097;28;20041;-49
2022/06/21 21:11:14;;;;;;;6.97;3.78;;;23.70;51.60;;;19.97;68.08;95088.75;4971406;28;20536;-48
2022/06/21 21:13:52;;;;;;;7.90;3.60;;;23.60;51.80;;;19.93;67.81;95087.84;4988663;28;20117;-50
2022/06/21 21:16:52;;;;;;;8.13;3.70;;;23.50;52.00;;;19.87;66.99;95091.88;5000840;28;20366;-49
2022/06/21 21:19:33;;;;;;;10.60;3.55;;;23.40;52.10;;;19.82;67.27;95086.69;4991476;28;20022;-46
2022/06/21 21:22:14;;;;;;;10.77;3.60;;;23.40;52.30;;;19.73;68.05;95077.88;4984850;28;20022;-48
2022/06/21 21:24:58;;;;;;;7.78;3.55;;;23.30;52.50;;;19.67;67.19;95088.09;4970475;28;20026;-53
